< < Back
Terminal Aerodrome Forecast


Current Version              Previous Versions:   1  2  3  4  5  6  7  8  9  

Terminal Aerodrome Forecast

243
FTUS42 KILM 181100
TAFILM
TAF
KILM 181131Z 1812/1912 03008KT P6SM SCT025 SCT060
     FM181900 07007KT P6SM BKN035 BKN070
     FM190300 04004KT P6SM SCT040 SCT080=



Latest METAR

777
SAUS70 KWBC 191200 RRO
MTRILM
METAR KILM 191153Z 05008KT 10SM CLR 19/17 A3010 RMK AO2 SLP194 T01940167
10194 20172 53017


USA.gov is the U.S. government's official web portal to all federal, state and local government web resources and services.